createdAt,value
2023-04-03T00:01:19.226Z,95306.19
2023-04-03T00:03:46.208Z,95305.34
2023-04-03T00:06:23.386Z,95305.59
2023-04-03T00:08:51.019Z,95297.50
2023-04-03T00:11:18.866Z,95296.94
2023-04-03T00:13:46.485Z,95295.31
2023-04-03T00:16:15.579Z,95295.53
2023-04-03T00:18:42.717Z,95305.19
2023-04-03T00:21:13.066Z,95299.94
2023-04-03T00:23:39.726Z,95302.56
2023-04-03T00:26:07.247Z,95294.94
2023-04-03T00:28:34.057Z,95304.81
2023-04-03T00:31:01.108Z,95305.03
2023-04-03T00:33:31.109Z,95298.97
2023-04-03T00:35:58.621Z,95299.66
2023-04-03T00:38:25.686Z,95297.41
2023-04-03T00:40:52.760Z,95298.66
2023-04-03T00:43:22.067Z,95295.88
2023-04-03T00:45:50.353Z,95297.69
2023-04-03T00:48:23.639Z,95301.34
2023-04-03T00:50:52.877Z,95301.34
2023-04-03T00:53:24.009Z,95304.94
2023-04-03T00:55:54.281Z,95294.69
2023-04-03T00:58:21.929Z,95300.94
2023-04-03T01:00:57.500Z,95299.78
2023-04-03T01:03:24.836Z,95303.97
2023-04-03T01:05:53.692Z,95298.97
2023-04-03T01:08:21.199Z,95293.94
2023-04-03T01:10:49.934Z,95293.94
2023-04-03T01:13:23.701Z,95292.34
2023-04-03T01:15:51.272Z,95294.97
2023-04-03T01:18:18.831Z,95296.97
2023-04-03T01:21:43.077Z,95294.34
2023-04-03T01:24:22.988Z,95294.97
2023-04-03T01:26:51.446Z,95296.22
2023-04-03T01:29:18.556Z,95297.84
2023-04-03T01:31:51.015Z,95288.16
2023-04-03T01:34:18.278Z,95292.59
2023-04-03T01:36:45.106Z,95293.59
2023-04-03T01:39:12.836Z,95298.22
2023-04-03T01:41:39.559Z,95289.56
2023-04-03T01:44:15.389Z,95298.03
2023-04-03T01:46:43.698Z,95294.38
2023-04-03T01:49:12.214Z,95290.97
2023-04-03T01:51:39.175Z,95286.94
2023-04-03T01:54:06.577Z,95279.88
2023-04-03T01:56:33.228Z,95278.09
2023-04-03T01:59:00.102Z,95278.88
2023-04-03T02:01:27.230Z,95280.50
2023-04-03T02:03:54.162Z,95282.13
2023-04-03T02:06:22.357Z,95282.13
2023-04-03T02:08:49.009Z,95277.88
2023-04-03T02:11:16.156Z,95280.50
2023-04-03T02:13:42.843Z,95280.72
2023-04-03T02:16:11.136Z,95283.34
2023-04-03T02:18:38.308Z,95275.66
2023-04-03T02:21:07.211Z,95277.50
2023-04-03T02:23:37.874Z,95272.47
2023-04-03T02:26:09.962Z,95275.06
2023-04-03T02:28:37.068Z,95271.66
2023-04-03T02:31:04.619Z,95278.53
2023-04-03T02:33:31.969Z,95274.28
2023-04-03T02:36:00.250Z,95264.78
2023-04-03T02:38:27.201Z,95268.25
2023-04-03T02:41:01.110Z,95259.56
2023-04-03T02:43:28.105Z,95264.38
2023-04-03T02:45:55.042Z,95269.63
2023-04-03T02:48:23.347Z,95267.25
2023-04-03T02:50:50.370Z,95271.09
2023-04-03T02:53:17.991Z,95273.47
2023-04-03T02:55:45.338Z,95270.66
2023-04-03T02:58:16.483Z,95268.03
2023-04-03T03:00:43.372Z,95272.91
2023-04-03T03:03:10.237Z,95279.13
2023-04-03T03:05:37.167Z,95280.38
2023-04-03T03:08:04.169Z,95277.75
2023-04-03T03:10:31.060Z,95278.97
2023-04-03T03:12:57.694Z,95284.19
2023-04-03T03:15:25.942Z,95275.34
2023-04-03T03:17:52.637Z,95279.75
2023-04-03T03:20:20.961Z,95277.00
2023-04-03T03:22:47.871Z,95291.50
2023-04-03T03:25:14.822Z,95280.25
2023-04-03T03:27:41.528Z,95271.41
2023-04-03T03:30:09.028Z,95279.66
2023-04-03T03:32:37.271Z,95282.50
2023-04-03T03:35:04.306Z,95279.09
2023-04-03T03:37:31.082Z,95284.75
2023-04-03T03:39:58.113Z,95281.31
2023-04-03T03:42:24.829Z,95282.53
2023-04-03T03:44:52.730Z,95278.72
2023-04-03T03:47:20.179Z,95284.56
2023-04-03T03:49:48.317Z,95281.53
2023-04-03T03:52:16.500Z,95276.91
2023-04-03T03:54:43.820Z,95281.53
2023-04-03T03:57:10.591Z,95282.16
2023-04-03T03:59:37.431Z,95277.75
2023-04-03T04:02:05.292Z,95277.75
2023-04-03T04:04:32.970Z,95275.50
2023-04-03T04:07:01.551Z,95274.91
2023-04-03T04:09:28.615Z,95277.16
2023-04-03T04:11:55.457Z,95277.34
2023-04-03T04:14:22.644Z,95277.75
2023-04-03T04:16:50.402Z,95281.22
2023-04-03T04:19:22.505Z,95279.03
2023-04-03T04:21:51.096Z,95273.19
2023-04-03T04:24:19.613Z,95281.44
2023-04-03T04:26:48.280Z,95278.84
2023-04-03T04:29:16.918Z,95285.06
2023-04-03T04:31:46.736Z,95280.03
2023-04-03T04:34:14.214Z,95285.66
2023-04-03T04:36:41.654Z,95286.88
2023-04-03T04:39:08.823Z,95282.84
2023-04-03T04:41:37.146Z,95284.66
2023-04-03T04:44:05.418Z,95286.25
2023-04-03T04:46:32.947Z,95281.44
2023-04-03T04:49:00.309Z,95284.25
2023-04-03T04:51:35.042Z,95291.31
2023-04-03T04:54:05.500Z,95283.88
2023-04-03T04:56:32.990Z,95298.97
2023-04-03T04:59:02.117Z,95300.38
2023-04-03T05:01:29.925Z,95287.50
2023-04-03T05:04:03.504Z,95298.97
2023-04-03T05:06:33.034Z,95304.03
2023-04-03T05:09:01.737Z,95299.78
2023-04-03T05:11:30.069Z,95299.16
2023-04-03T05:13:56.960Z,95299.16
2023-04-03T05:16:26.798Z,95301.78
2023-04-03T05:18:53.878Z,95308.84
2023-04-03T05:21:24.285Z,95301.81
2023-04-03T05:23:52.451Z,95312.69
2023-04-03T05:26:19.593Z,95314.09
2023-04-03T05:28:48.486Z,95308.25
2023-04-03T05:31:16.118Z,95311.50
2023-04-03T05:33:44.783Z,95306.84
2023-04-03T05:36:16.460Z,95309.28
2023-04-03T05:38:46.606Z,95314.31
2023-04-03T05:41:13.845Z,95314.91
2023-04-03T05:43:41.897Z,95315.31
2023-04-03T05:46:12.112Z,95315.31
2023-04-03T05:48:39.511Z,95312.28
2023-04-03T05:51:14.543Z,95318.91
2023-04-03T05:53:42.341Z,95310.84
2023-04-03T05:56:09.251Z,95311.69
2023-04-03T05:58:39.600Z,95308.03
2023-04-03T06:01:06.939Z,95310.25
2023-04-03T06:03:36.509Z,95312.25
2023-04-03T06:06:06.137Z,95305.81
2023-04-03T06:08:35.873Z,95311.63
2023-04-03T06:11:03.168Z,95317.44
2023-04-03T06:13:30.555Z,95318.47
2023-04-03T06:15:58.155Z,95316.47
2023-04-03T06:18:25.269Z,95319.69
2023-04-03T06:20:52.217Z,95318.84
2023-04-03T06:23:20.169Z,95320.25
2023-04-03T06:25:48.614Z,95327.13
2023-04-03T06:28:15.438Z,95314.22
2023-04-03T06:30:42.181Z,95324.91
2023-04-03T06:33:09.066Z,95326.31
2023-04-03T06:35:36.426Z,95328.72
2023-04-03T06:38:08.758Z,95323.06
2023-04-03T06:40:35.955Z,95323.88
2023-04-03T06:43:04.202Z,95331.13
2023-04-03T06:45:30.960Z,95331.13
2023-04-03T06:47:58.023Z,95331.56
2023-04-03T06:50:25.332Z,95330.13
2023-04-03T06:52:51.999Z,95332.91
2023-04-03T06:55:19.205Z,95326.09
2023-04-03T06:57:46.398Z,95337.16
2023-04-03T07:00:17.686Z,95339.59
2023-04-03T07:02:44.666Z,95338.56
2023-04-03T07:05:11.384Z,95340.78
2023-04-03T07:07:38.794Z,95347.22
2023-04-03T07:10:07.292Z,95351.66
2023-04-03T07:12:34.051Z,95351.47
2023-04-03T07:15:01.221Z,95354.09
2023-04-03T07:17:29.292Z,95357.09
2023-04-03T07:19:56.516Z,95359.31
2023-04-03T07:22:23.318Z,95359.13
2023-04-03T07:24:49.978Z,95355.31
2023-04-03T07:27:16.694Z,95360.13
2023-04-03T07:29:43.965Z,95356.28
2023-04-03T07:32:11.320Z,95366.38
2023-04-03T07:34:39.445Z,95361.34
2023-04-03T07:37:07.737Z,95367.78
2023-04-03T07:39:34.382Z,95374.63
2023-04-03T07:42:01.654Z,95368.97
2023-04-03T07:44:28.698Z,95369.38
2023-04-03T07:46:58.762Z,95365.53
2023-04-03T07:49:25.793Z,95373.41
2023-04-03T07:51:54.016Z,95369.78
2023-04-03T07:54:20.911Z,95376.81
2023-04-03T07:56:47.943Z,95378.22
2023-04-03T07:59:14.737Z,95376.81
2023-04-03T08:01:41.899Z,95376.97
2023-04-03T08:04:08.652Z,95376.97
2023-04-03T08:06:45.719Z,95382.16
2023-04-03T08:09:16.229Z,95375.69
2023-04-03T08:11:43.594Z,95374.47
2023-04-03T08:14:16.647Z,95370.22
2023-04-03T08:16:44.542Z,95377.88
2023-04-03T08:19:22.393Z,95378.69
2023-04-03T08:21:52.980Z,95382.50
2023-04-03T08:24:21.252Z,95382.88
2023-04-03T08:26:47.995Z,95378.88
2023-04-03T08:29:14.875Z,95379.47
2023-04-03T08:31:41.756Z,95382.06
2023-04-03T08:34:09.646Z,95384.13
2023-04-03T08:36:36.472Z,95383.34
2023-04-03T08:39:05.097Z,95381.50
2023-04-03T08:41:36.665Z,95378.69
2023-04-03T08:44:17.512Z,95383.31
2023-04-03T08:46:57.797Z,95385.75
2023-04-03T08:49:29.780Z,95386.72
2023-04-03T08:51:58.408Z,95386.16
2023-04-03T08:54:31.923Z,95389.53
2023-04-03T08:57:05.073Z,95390.94
2023-04-03T08:59:35.881Z,95390.91
2023-04-03T09:02:17.376Z,95388.88
2023-04-03T09:04:45.032Z,95390.47
2023-04-03T09:10:05.091Z,95390.84
2023-04-03T09:15:35.305Z,95391.34
2023-04-03T09:18:08.502Z,95389.28
2023-04-03T09:20:53.036Z,95386.25
2023-04-03T09:26:11.548Z,95381.06
2023-04-03T09:28:50.044Z,95382.84
2023-04-03T09:31:23.402Z,95387.28
2023-04-03T09:33:53.019Z,95389.91
2023-04-03T09:58:17.489Z,95383.91
2023-04-03T10:00:55.237Z,95384.81
2023-04-03T10:03:26.396Z,95381.31
2023-04-03T10:05:55.428Z,95383.78
2023-04-03T10:13:05.634Z,95378.16
2023-04-03T10:15:40.085Z,95376.56
2023-04-03T10:18:24.416Z,95382.72
2023-04-03T10:20:54.880Z,95374.69
2023-04-03T10:23:29.664Z,95374.66
2023-04-03T10:28:45.705Z,95369.72
2023-04-03T10:31:18.277Z,95376.50
2023-04-03T10:34:04.602Z,95371.69
2023-04-03T10:36:39.645Z,95372.09
2023-04-03T10:39:16.676Z,95370.56
2023-04-03T10:41:58.214Z,95377.91
2023-04-03T10:44:36.969Z,95377.56
2023-04-03T10:47:11.706Z,95377.78
2023-04-03T10:49:59.376Z,95373.09
2023-04-03T10:52:38.426Z,95372.47
2023-04-03T10:55:22.060Z,95374.63
2023-04-03T10:57:51.422Z,95362.47
2023-04-03T11:00:22.476Z,95363.19
2023-04-03T11:02:54.808Z,95360.50
2023-04-03T11:05:33.666Z,95371.94
2023-04-03T11:08:05.717Z,95366.34
2023-04-03T11:10:38.805Z,95369.00
2023-04-03T11:13:12.382Z,95366.59
2023-04-03T11:15:40.951Z,95360.53
2023-04-03T11:18:14.668Z,95365.25
2023-04-03T11:20:59.014Z,95359.03
2023-04-03T11:23:30.574Z,95351.44
2023-04-03T11:26:09.225Z,95353.16
2023-04-03T11:28:37.365Z,95346.97
2023-04-03T11:31:17.716Z,95347.53
2023-04-03T11:33:53.399Z,95346.50
2023-04-03T11:36:32.894Z,95347.69
2023-04-03T11:39:08.611Z,95347.88
2023-04-03T11:41:35.776Z,95349.94
2023-04-03T11:44:05.087Z,95346.16
2023-04-03T11:46:55.667Z,95345.13
2023-04-03T11:50:03.448Z,95341.09
2023-04-03T11:53:01.751Z,95333.81
2023-04-03T11:55:58.320Z,95340.34
2023-04-03T11:58:28.745Z,95340.34
2023-04-03T12:01:04.802Z,95338.75
2023-04-03T12:03:46.744Z,95338.53
2023-04-03T12:06:32.415Z,95342.19
2023-04-03T12:09:00.506Z,95339.19
2023-04-03T12:11:30.992Z,95334.59
2023-04-03T12:14:05.945Z,95335.41
2023-04-03T12:16:42.640Z,95328.69
2023-04-03T12:19:42.943Z,95334.88
2023-04-03T12:22:16.805Z,95331.53
2023-04-03T12:24:48.278Z,95326.84
2023-04-03T12:27:23.545Z,95334.44
2023-04-03T12:29:57.025Z,95329.88
2023-04-03T12:32:52.170Z,95328.91
2023-04-03T12:35:29.026Z,95328.81
2023-04-03T12:38:21.466Z,95327.88
2023-04-03T12:40:58.250Z,95328.16
2023-04-03T12:43:39.580Z,95334.78
2023-04-03T12:46:17.115Z,95328.84
2023-04-03T12:48:56.904Z,95337.44
2023-04-03T12:51:31.288Z,95336.84
2023-04-03T12:54:03.452Z,95329.16
2023-04-03T12:56:33.770Z,95328.50
2023-04-03T12:59:18.425Z,95328.97
2023-04-03T13:01:53.776Z,95334.22
2023-04-03T13:04:20.566Z,95331.47
2023-04-03T13:06:47.719Z,95342.56
2023-04-03T13:09:22.686Z,95341.53
2023-04-03T13:11:57.598Z,95351.09
2023-04-03T13:14:26.413Z,95337.38
2023-04-03T13:16:57.743Z,95332.34
2023-04-03T13:19:27.543Z,95333.28
2023-04-03T13:22:00.532Z,95340.75
2023-04-03T13:24:27.921Z,95340.19
2023-04-03T13:26:58.029Z,95338.13
2023-04-03T13:29:31.312Z,95343.06
2023-04-03T13:32:00.043Z,95332.47
2023-04-03T13:34:29.270Z,95330.31
2023-04-03T13:36:58.528Z,95334.94
2023-04-03T13:39:27.284Z,95332.78
2023-04-03T13:41:58.390Z,95335.63
2023-04-03T13:44:31.086Z,95340.88
2023-04-03T13:46:59.708Z,95342.91
2023-04-03T13:49:33.722Z,95332.41
2023-04-03T13:52:07.133Z,95336.31
2023-04-03T13:54:37.517Z,95329.56
2023-04-03T13:57:12.980Z,95320.63
2023-04-03T13:59:41.197Z,95323.06
2023-04-03T14:02:18.189Z,95315.66
2023-04-03T14:04:57.214Z,95322.41
2023-04-03T14:07:24.927Z,95318.19
2023-04-03T14:09:52.579Z,95319.13
2023-04-03T14:12:31.483Z,95318.16
2023-04-03T14:15:03.714Z,95318.69
2023-04-03T14:17:31.131Z,95324.50
2023-04-03T14:19:59.526Z,95324.34
2023-04-03T14:22:29.266Z,95308.69
2023-04-03T14:24:57.166Z,95313.94
2023-04-03T14:27:26.583Z,95317.38
2023-04-03T14:29:54.737Z,95311.59
2023-04-03T14:32:25.023Z,95302.34
2023-04-03T14:34:53.460Z,95307.72
2023-04-03T14:37:24.229Z,95305.69
2023-04-03T14:39:52.019Z,95304.22
2023-04-03T14:42:21.897Z,95299.63
2023-04-03T14:44:49.087Z,95297.00
2023-04-03T14:47:29.954Z,95299.50
2023-04-03T14:50:00.981Z,95298.31
2023-04-03T14:52:29.986Z,95301.41
2023-04-03T14:54:57.081Z,95299.22
2023-04-03T14:57:26.294Z,95305.72
2023-04-03T14:59:53.492Z,95307.22
2023-04-03T15:02:28.274Z,95305.91
2023-04-03T15:04:55.293Z,95306.66
2023-04-03T15:07:25.070Z,95312.81
2023-04-03T15:09:53.627Z,95310.44
2023-04-03T15:12:20.497Z,95310.09
2023-04-03T15:14:51.931Z,95306.88
2023-04-03T15:17:25.063Z,95303.53
2023-04-03T15:19:51.699Z,95308.41
2023-04-03T15:22:20.300Z,95303.97
2023-04-03T15:24:49.349Z,95312.81
2023-04-03T15:27:16.777Z,95308.56
2023-04-03T15:29:45.017Z,95296.22
2023-04-03T15:32:12.718Z,95302.81
2023-04-03T15:34:40.158Z,95300.31
2023-04-03T15:37:06.928Z,95300.91
2023-04-03T15:39:33.583Z,95296.66
2023-04-03T15:42:06.843Z,95304.78
2023-04-03T15:44:34.729Z,95302.56
2023-04-03T15:47:03.407Z,95297.47
2023-04-03T15:49:30.924Z,95300.22
2023-04-03T15:51:59.160Z,95294.91
2023-04-03T15:54:26.364Z,95296.50
2023-04-03T15:56:54.377Z,95302.53
2023-04-03T15:59:22.765Z,95298.69
2023-04-03T16:01:51.150Z,95297.81
2023-04-03T16:04:19.487Z,95298.59
2023-04-03T16:06:46.960Z,95296.78
2023-04-03T16:09:13.756Z,95298.59
2023-04-03T16:11:40.869Z,95311.81
2023-04-03T16:14:07.771Z,95309.88
2023-04-03T16:16:36.692Z,95309.78
2023-04-03T16:19:04.258Z,95308.25
2023-04-03T16:21:32.354Z,95308.78
2023-04-03T16:23:59.334Z,95312.38
2023-04-03T16:26:26.478Z,95309.19
2023-04-03T16:28:53.161Z,95309.88
2023-04-03T16:31:20.827Z,95311.47
2023-04-03T16:33:49.088Z,95316.56
2023-04-03T16:36:15.967Z,95321.75
2023-04-03T16:38:42.589Z,95324.31
2023-04-03T16:41:09.487Z,95329.28
2023-04-03T16:43:36.788Z,95320.94
2023-04-03T16:46:04.237Z,95319.22
2023-04-03T16:48:31.154Z,95318.88
2023-04-03T16:50:59.349Z,95319.72
2023-04-03T16:53:27.114Z,95323.19
2023-04-03T16:55:54.064Z,95325.03
2023-04-03T16:58:23.378Z,95324.06
2023-04-03T17:00:51.405Z,95331.72
2023-04-03T17:03:18.254Z,95330.69
2023-04-03T17:05:47.859Z,95322.63
2023-04-03T17:08:16.988Z,95327.47
2023-04-03T17:10:43.689Z,95331.84
2023-04-03T17:13:10.648Z,95326.78
2023-04-03T17:15:37.722Z,95326.78
2023-04-03T17:18:04.793Z,95332.25
2023-04-03T17:20:31.574Z,95330.63
2023-04-03T17:22:58.904Z,95330.84
2023-04-03T17:25:27.008Z,95332.28
2023-04-03T17:27:53.738Z,95337.72
2023-04-03T17:30:20.446Z,95337.94
2023-04-03T17:32:47.093Z,95333.88
2023-04-03T17:35:13.861Z,95339.72
2023-04-03T17:37:41.158Z,95335.50
2023-04-03T17:40:09.005Z,95340.56
2023-04-03T17:42:37.115Z,95342.00
2023-04-03T17:45:05.134Z,95340.25
2023-04-03T17:47:32.668Z,95343.09
2023-04-03T17:49:59.422Z,95339.50
2023-04-03T17:52:28.328Z,95340.34
2023-04-03T17:54:55.012Z,95337.13
2023-04-03T17:57:21.698Z,95342.34
2023-04-03T17:59:49.926Z,95338.72
2023-04-03T18:02:16.551Z,95340.72
2023-04-03T18:04:43.221Z,95344.94
2023-04-03T18:07:10.288Z,95349.94
2023-04-03T18:09:40.825Z,95344.25
2023-04-03T18:12:09.002Z,95345.84
2023-04-03T18:14:38.203Z,95348.44
2023-04-03T18:17:07.015Z,95355.47
2023-04-03T18:19:34.353Z,95354.63
2023-04-03T18:22:04.749Z,95355.59
2023-04-03T18:24:33.886Z,95363.47
2023-04-03T18:27:04.334Z,95361.66
2023-04-03T18:29:33.978Z,95370.34
2023-04-03T18:32:01.587Z,95363.47
2023-04-03T18:34:30.228Z,95365.28
2023-04-03T18:36:57.002Z,95367.72
2023-04-03T18:39:24.852Z,95375.56
2023-04-03T18:41:53.246Z,95366.69
2023-04-03T18:44:25.932Z,95366.47
2023-04-03T18:46:53.968Z,95375.94
2023-04-03T18:49:21.040Z,95373.34
2023-04-03T18:51:49.691Z,95378.34
2023-04-03T18:54:16.538Z,95384.63
2023-04-03T18:56:43.191Z,95379.19
2023-04-03T18:59:10.098Z,95384.19
2023-04-03T19:01:37.413Z,95386.22
2023-04-03T19:04:04.281Z,95391.88
2023-04-03T19:06:32.553Z,95390.28
2023-04-03T19:09:02.963Z,95385.03
2023-04-03T19:11:30.549Z,95389.06
2023-04-03T19:14:04.443Z,95394.50
2023-04-03T19:16:41.827Z,95391.50
2023-04-03T19:19:08.960Z,95384.06
2023-04-03T19:21:40.666Z,95381.44
2023-04-03T19:24:09.333Z,95386.09
2023-04-03T19:26:37.366Z,95382.84
2023-04-03T19:29:04.241Z,95384.94
2023-04-03T19:31:33.404Z,95383.31
2023-04-03T19:34:02.858Z,95387.56
2023-04-03T19:36:29.981Z,95385.38
2023-04-03T19:38:56.790Z,95380.94
2023-04-03T19:41:27.416Z,95381.53
2023-04-03T19:43:55.705Z,95383.31
2023-04-03T19:46:23.218Z,95388.56
2023-04-03T19:48:50.055Z,95384.72
2023-04-03T19:51:16.972Z,95384.72
2023-04-03T19:53:44.490Z,95387.56
2023-04-03T19:56:11.316Z,95388.97
2023-04-03T19:58:39.875Z,95394.66
2023-04-03T20:01:07.440Z,95386.00
2023-04-03T20:03:34.471Z,95393.66
2023-04-03T20:06:02.763Z,95387.84
2023-04-03T20:08:31.333Z,95388.88
2023-04-03T20:10:58.069Z,95393.13
2023-04-03T20:13:24.772Z,95384.09
2023-04-03T20:15:53.428Z,95386.91
2023-04-03T20:18:21.324Z,95386.13
2023-04-03T20:20:53.197Z,95390.16
2023-04-03T20:23:21.013Z,95384.34
2023-04-03T20:25:58.010Z,95387.34
2023-04-03T20:28:33.912Z,95395.63
2023-04-03T20:31:03.661Z,95389.78
2023-04-03T20:33:30.382Z,95391.00
2023-04-03T20:35:58.061Z,95390.38
2023-04-03T20:38:25.745Z,95385.56
2023-04-03T20:40:52.492Z,95386.38
2023-04-03T20:43:19.685Z,95388.97
2023-04-03T20:45:48.121Z,95384.53
2023-04-03T20:48:18.332Z,95378.50
2023-04-03T20:50:46.479Z,95386.19
2023-04-03T20:53:13.754Z,95382.34
2023-04-03T20:55:41.468Z,95379.13
2023-04-03T20:58:08.759Z,95383.34
2023-04-03T21:00:37.585Z,95382.94
2023-04-03T21:03:04.861Z,95377.09
2023-04-03T21:05:37.414Z,95378.50
2023-04-03T21:08:42.510Z,95375.50
2023-04-03T21:11:47.273Z,95374.28
2023-04-03T21:14:52.105Z,95375.28
2023-04-03T21:17:18.853Z,95371.44
2023-04-03T21:19:47.035Z,95369.22
2023-04-03T21:22:16.022Z,95365.63
2023-04-03T21:24:43.465Z,95378.47
2023-04-03T21:27:10.537Z,95373.25
2023-04-03T21:29:37.696Z,95380.28
2023-04-03T21:32:04.452Z,95378.69
2023-04-03T21:34:31.649Z,95378.88
2023-04-03T21:37:03.557Z,95377.28
2023-04-03T21:39:30.667Z,95375.88
2023-04-03T21:41:57.305Z,95371.63
2023-04-03T21:44:26.989Z,95376.63
2023-04-03T21:46:54.719Z,95372.44
2023-04-03T21:49:22.438Z,95370.81
2023-04-03T21:51:51.383Z,95372.97
2023-04-03T21:54:20.165Z,95370.59
2023-04-03T21:56:51.656Z,95370.78
2023-04-03T21:59:18.719Z,95373.38
2023-04-03T22:01:45.615Z,95380.19
2023-04-03T22:04:12.688Z,95375.38
2023-04-03T22:06:39.421Z,95372.75
2023-04-03T22:09:06.665Z,95367.31
2023-04-03T22:11:34.670Z,95381.78
2023-04-03T22:14:01.364Z,95368.31
2023-04-03T22:16:28.053Z,95376.34
2023-04-03T22:18:56.140Z,95370.31
2023-04-03T22:21:23.049Z,95368.13
2023-04-03T22:23:49.791Z,95374.31
2023-04-03T22:26:17.738Z,95367.28
2023-04-03T22:28:46.968Z,95368.28
2023-04-03T22:31:16.304Z,95373.13
2023-04-03T22:33:44.824Z,95364.84
2023-04-03T22:36:12.951Z,95363.59
2023-04-03T22:38:44.181Z,95376.19
2023-04-03T22:41:11.909Z,95371.88
2023-04-03T22:43:39.536Z,95372.59
2023-04-03T22:46:09.153Z,95375.81
2023-04-03T22:48:37.275Z,95372.75
2023-04-03T22:51:07.225Z,95374.56
2023-04-03T22:53:34.022Z,95367.53
2023-04-03T22:56:02.102Z,95369.34
2023-04-03T22:58:29.831Z,95373.56
2023-04-03T23:01:08.091Z,95373.19
2023-04-03T23:03:37.667Z,95373.00
2023-04-03T23:06:05.466Z,95373.38
2023-04-03T23:08:34.499Z,95377.78
2023-04-03T23:11:02.818Z,95373.38
2023-04-03T23:13:29.734Z,95367.59
2023-04-03T23:15:57.742Z,95375.59
2023-04-03T23:18:25.432Z,95375.38
2023-04-03T23:20:54.976Z,95377.97
2023-04-03T23:23:22.396Z,95375.38
2023-04-03T23:25:51.701Z,95376.16
2023-04-03T23:28:18.345Z,95375.97
2023-04-03T23:30:46.698Z,95380.19
2023-04-03T23:33:13.416Z,95375.19
2023-04-03T23:35:43.113Z,95372.16
2023-04-03T23:38:12.638Z,95377.16
2023-04-03T23:40:40.060Z,95372.97
2023-04-03T23:43:06.781Z,95369.31
2023-04-03T23:45:34.147Z,95366.88
2023-04-03T23:48:01.921Z,95372.50
2023-04-03T23:50:28.952Z,95376.28
2023-04-03T23:52:55.726Z,95375.28
2023-04-03T23:55:23.699Z,95364.03
2023-04-03T23:57:50.354Z,95378.50
